sensor_id;sensor_type;location;lat;lon;timestamp;P1;durP1;ratioP1;P2;durP2;ratioP2
8592;SDS011;4334;49.982;8.398;2023-06-22T00:02:04;3.33;;;2.88;;
8592;SDS011;4334;49.982;8.398;2023-06-22T00:04:31;4.90;;;3.20;;
8592;SDS011;4334;49.982;8.398;2023-06-22T00:06:58;3.88;;;3.38;;
8592;SDS011;4334;49.982;8.398;2023-06-22T00:09:25;4.97;;;3.10;;
8592;SDS011;4334;49.982;8.398;2023-06-22T00:11:52;4.55;;;3.10;;
8592;SDS011;4334;49.982;8.398;2023-06-22T00:14:20;4.65;;;3.03;;
8592;SDS011;4334;49.982;8.398;2023-06-22T00:16:47;4.80;;;2.85;;
8592;SDS011;4334;49.982;8.398;2023-06-22T00:19:14;6.10;;;3.40;;
8592;SDS011;4334;49.982;8.398;2023-06-22T00:21:41;3.67;;;2.75;;
8592;SDS011;4334;49.982;8.398;2023-06-22T00:24:12;3.83;;;3.03;;
8592;SDS011;4334;49.982;8.398;2023-06-22T00:26:38;5.93;;;3.03;;
8592;SDS011;4334;49.982;8.398;2023-06-22T00:29:05;4.32;;;3.40;;
8592;SDS011;4334;49.982;8.398;2023-06-22T00:31:34;3.75;;;2.97;;
8592;SDS011;4334;49.982;8.398;2023-06-22T00:34:00;3.85;;;3.17;;
8592;SDS011;4334;49.982;8.398;2023-06-22T00:36:27;5.13;;;3.25;;
8592;SDS011;4334;49.982;8.398;2023-06-22T00:38:54;3.22;;;2.90;;
8592;SDS011;4334;49.982;8.398;2023-06-22T00:41:22;3.85;;;2.95;;
8592;SDS011;4334;49.982;8.398;2023-06-22T00:43:53;4.47;;;3.38;;
8592;SDS011;4334;49.982;8.398;2023-06-22T00:46:20;4.40;;;3.45;;
8592;SDS011;4334;49.982;8.398;2023-06-22T00:48:49;3.75;;;3.28;;
8592;SDS011;4334;49.982;8.398;2023-06-22T00:51:17;3.28;;;2.95;;
8592;SDS011;4334;49.982;8.398;2023-06-22T00:53:49;4.05;;;3.00;;
8592;SDS011;4334;49.982;8.398;2023-06-22T00:56:16;4.18;;;3.35;;
8592;SDS011;4334;49.982;8.398;2023-06-22T00:58:49;5.32;;;3.35;;
8592;SDS011;4334;49.982;8.398;2023-06-22T01:01:18;4.13;;;3.67;;
8592;SDS011;4334;49.982;8.398;2023-06-22T01:03:49;8.93;;;3.38;;
8592;SDS011;4334;49.982;8.398;2023-06-22T01:06:19;3.88;;;3.20;;
8592;SDS011;4334;49.982;8.398;2023-06-22T01:08:53;12.00;;;4.35;;
8592;SDS011;4334;49.982;8.398;2023-06-22T01:11:24;4.28;;;3.35;;
8592;SDS011;4334;49.982;8.398;2023-06-22T01:13:54;6.30;;;3.83;;
8592;SDS011;4334;49.982;8.398;2023-06-22T01:16:25;5.60;;;4.20;;
8592;SDS011;4334;49.982;8.398;2023-06-22T01:18:55;5.97;;;3.70;;
8592;SDS011;4334;49.982;8.398;2023-06-22T01:21:24;6.32;;;4.47;;
8592;SDS011;4334;49.982;8.398;2023-06-22T01:23:56;5.40;;;4.28;;
8592;SDS011;4334;49.982;8.398;2023-06-22T01:26:37;6.50;;;4.57;;
8592;SDS011;4334;49.982;8.398;2023-06-22T01:29:06;6.00;;;4.18;;
8592;SDS011;4334;49.982;8.398;2023-06-22T01:31:37;6.13;;;4.40;;
8592;SDS011;4334;49.982;8.398;2023-06-22T01:34:06;4.93;;;4.43;;
8592;SDS011;4334;49.982;8.398;2023-06-22T01:36:33;7.10;;;4.40;;
8592;SDS011;4334;49.982;8.398;2023-06-22T01:39:02;5.47;;;4.37;;
8592;SDS011;4334;49.982;8.398;2023-06-22T01:41:29;6.83;;;4.73;;
8592;SDS011;4334;49.982;8.398;2023-06-22T01:43:57;5.10;;;4.13;;
8592;SDS011;4334;49.982;8.398;2023-06-22T01:46:26;6.07;;;4.63;;
8592;SDS011;4334;49.982;8.398;2023-06-22T01:48:53;17.63;;;4.60;;
8592;SDS011;4334;49.982;8.398;2023-06-22T01:51:20;12.80;;;4.27;;
8592;SDS011;4334;49.982;8.398;2023-06-22T01:53:47;5.97;;;4.40;;
8592;SDS011;4334;49.982;8.398;2023-06-22T01:56:15;6.25;;;4.80;;
8592;SDS011;4334;49.982;8.398;2023-06-22T01:58:45;5.37;;;4.27;;
8592;SDS011;4334;49.982;8.398;2023-06-22T02:01:17;5.47;;;4.40;;
8592;SDS011;4334;49.982;8.398;2023-06-22T02:03:50;5.63;;;4.50;;
8592;SDS011;4334;49.982;8.398;2023-06-22T02:06:20;15.30;;;4.90;;
8592;SDS011;4334;49.982;8.398;2023-06-22T02:08:51;6.60;;;4.93;;
8592;SDS011;4334;49.982;8.398;2023-06-22T02:11:20;5.60;;;4.57;;
8592;SDS011;4334;49.982;8.398;2023-06-22T02:13:48;6.10;;;4.50;;
8592;SDS011;4334;49.982;8.398;2023-06-22T02:16:16;6.00;;;4.57;;
8592;SDS011;4334;49.982;8.398;2023-06-22T02:18:45;7.73;;;4.23;;
8592;SDS011;4334;49.982;8.398;2023-06-22T02:21:14;6.23;;;4.97;;
8592;SDS011;4334;49.982;8.398;2023-06-22T02:23:41;5.40;;;4.18;;
8592;SDS011;4334;49.982;8.398;2023-06-22T02:26:08;4.77;;;4.27;;
8592;SDS011;4334;49.982;8.398;2023-06-22T02:28:35;6.50;;;4.23;;
8592;SDS011;4334;49.982;8.398;2023-06-22T02:31:02;5.53;;;4.33;;
8592;SDS011;4334;49.982;8.398;2023-06-22T02:33:29;5.00;;;3.70;;
8592;SDS011;4334;49.982;8.398;2023-06-22T02:35:56;5.05;;;4.35;;
8592;SDS011;4334;49.982;8.398;2023-06-22T02:38:25;5.80;;;4.20;;
8592;SDS011;4334;49.982;8.398;2023-06-22T02:40:52;6.37;;;4.20;;
8592;SDS011;4334;49.982;8.398;2023-06-22T02:43:19;6.05;;;4.18;;
8592;SDS011;4334;49.982;8.398;2023-06-22T02:45:46;4.47;;;4.00;;
8592;SDS011;4334;49.982;8.398;2023-06-22T02:48:13;4.40;;;4.00;;
8592;SDS011;4334;49.982;8.398;2023-06-22T02:50:39;5.07;;;4.43;;
8592;SDS011;4334;49.982;8.398;2023-06-22T02:53:06;7.68;;;4.22;;
8592;SDS011;4334;49.982;8.398;2023-06-22T02:55:35;5.20;;;4.18;;
8592;SDS011;4334;49.982;8.398;2023-06-22T02:58:02;4.85;;;4.20;;
8592;SDS011;4334;49.982;8.398;2023-06-22T03:00:30;5.88;;;4.72;;
8592;SDS011;4334;49.982;8.398;2023-06-22T03:02:57;12.70;;;4.35;;
8592;SDS011;4334;49.982;8.398;2023-06-22T03:05:24;4.82;;;4.13;;
8592;SDS011;4334;49.982;8.398;2023-06-22T03:07:51;4.25;;;3.85;;
8592;SDS011;4334;49.982;8.398;2023-06-22T03:10:18;6.82;;;3.78;;
8592;SDS011;4334;49.982;8.398;2023-06-22T03:12:46;6.03;;;4.35;;
8592;SDS011;4334;49.982;8.398;2023-06-22T03:15:13;4.70;;;4.18;;
8592;SDS011;4334;49.982;8.398;2023-06-22T03:17:42;7.22;;;4.20;;
8592;SDS011;4334;49.982;8.398;2023-06-22T03:20:09;5.45;;;4.25;;
8592;SDS011;4334;49.982;8.398;2023-06-22T03:22:37;5.97;;;4.53;;
8592;SDS011;4334;49.982;8.398;2023-06-22T03:25:04;4.63;;;4.00;;
8592;SDS011;4334;49.982;8.398;2023-06-22T03:27:35;6.10;;;4.28;;
8592;SDS011;4334;49.982;8.398;2023-06-22T03:30:05;5.07;;;4.40;;
8592;SDS011;4334;49.982;8.398;2023-06-22T03:32:33;7.55;;;4.68;;
8592;SDS011;4334;49.982;8.398;2023-06-22T03:35:01;7.25;;;4.82;;
8592;SDS011;4334;49.982;8.398;2023-06-22T03:37:28;8.02;;;4.30;;
8592;SDS011;4334;49.982;8.398;2023-06-22T03:39:55;4.20;;;3.80;;
8592;SDS011;4334;49.982;8.398;2023-06-22T03:42:22;4.85;;;4.18;;
8592;SDS011;4334;49.982;8.398;2023-06-22T03:44:49;8.63;;;4.35;;
8592;SDS011;4334;49.982;8.398;2023-06-22T03:47:18;6.38;;;3.97;;
8592;SDS011;4334;49.982;8.398;2023-06-22T03:49:45;5.35;;;4.22;;
8592;SDS011;4334;49.982;8.398;2023-06-22T03:52:12;8.05;;;4.47;;
8592;SDS011;4334;49.982;8.398;2023-06-22T03:54:39;4.90;;;3.75;;
8592;SDS011;4334;49.982;8.398;2023-06-22T03:57:06;4.10;;;3.70;;
8592;SDS011;4334;49.982;8.398;2023-06-22T03:59:33;4.85;;;3.97;;
8592;SDS011;4334;49.982;8.398;2023-06-22T04:02:00;8.75;;;4.40;;
8592;SDS011;4334;49.982;8.398;2023-06-22T04:04:28;6.95;;;4.53;;
8592;SDS011;4334;49.982;8.398;2023-06-22T04:06:56;5.68;;;4.00;;
8592;SDS011;4334;49.982;8.398;2023-06-22T04:09:23;10.65;;;4.28;;
8592;SDS011;4334;49.982;8.398;2023-06-22T04:11:50;6.75;;;4.18;;
8592;SDS011;4334;49.982;8.398;2023-06-22T04:14:17;5.50;;;4.25;;
8592;SDS011;4334;49.982;8.398;2023-06-22T04:16:44;7.82;;;3.95;;
8592;SDS011;4334;49.982;8.398;2023-06-22T04:19:11;5.35;;;4.63;;
8592;SDS011;4334;49.982;8.398;2023-06-22T04:21:42;4.80;;;4.20;;
8592;SDS011;4334;49.982;8.398;2023-06-22T04:24:10;9.02;;;4.22;;
8592;SDS011;4334;49.982;8.398;2023-06-22T04:26:37;5.85;;;4.03;;
8592;SDS011;4334;49.982;8.398;2023-06-22T04:29:06;6.30;;;4.50;;
8592;SDS011;4334;49.982;8.398;2023-06-22T04:31:33;5.35;;;4.03;;
8592;SDS011;4334;49.982;8.398;2023-06-22T04:34:01;7.35;;;4.50;;
8592;SDS011;4334;49.982;8.398;2023-06-22T04:36:31;5.05;;;4.38;;
8592;SDS011;4334;49.982;8.398;2023-06-22T04:39:04;5.38;;;4.15;;
8592;SDS011;4334;49.982;8.398;2023-06-22T04:41:34;5.15;;;4.32;;
8592;SDS011;4334;49.982;8.398;2023-06-22T04:44:07;9.50;;;4.85;;
8592;SDS011;4334;49.982;8.398;2023-06-22T04:46:34;4.93;;;4.05;;
8592;SDS011;4334;49.982;8.398;2023-06-22T04:49:03;6.15;;;5.22;;
8592;SDS011;4334;49.982;8.398;2023-06-22T04:51:31;11.15;;;4.72;;
8592;SDS011;4334;49.982;8.398;2023-06-22T04:53:58;9.75;;;4.57;;
8592;SDS011;4334;49.982;8.398;2023-06-22T04:56:27;6.30;;;4.68;;
8592;SDS011;4334;49.982;8.398;2023-06-22T04:58:54;6.43;;;5.40;;
8592;SDS011;4334;49.982;8.398;2023-06-22T05:01:22;6.15;;;4.93;;
8592;SDS011;4334;49.982;8.398;2023-06-22T05:03:50;5.85;;;4.85;;
8592;SDS011;4334;49.982;8.398;2023-06-22T05:06:20;6.15;;;4.50;;
8592;SDS011;4334;49.982;8.398;2023-06-22T05:08:49;5.82;;;4.55;;
8592;SDS011;4334;49.982;8.398;2023-06-22T05:11:16;6.55;;;4.57;;
8592;SDS011;4334;49.982;8.398;2023-06-22T05:13:45;5.57;;;4.90;;
8592;SDS011;4334;49.982;8.398;2023-06-22T05:16:12;5.40;;;4.68;;
8592;SDS011;4334;49.982;8.398;2023-06-22T05:18:39;5.85;;;4.65;;
8592;SDS011;4334;49.982;8.398;2023-06-22T05:21:06;7.25;;;5.10;;
8592;SDS011;4334;49.982;8.398;2023-06-22T05:23:33;7.22;;;5.32;;
8592;SDS011;4334;49.982;8.398;2023-06-22T05:26:01;7.82;;;5.13;;
8592;SDS011;4334;49.982;8.398;2023-06-22T05:28:28;6.13;;;4.63;;
8592;SDS011;4334;49.982;8.398;2023-06-22T05:30:56;10.27;;;4.75;;
8592;SDS011;4334;49.982;8.398;2023-06-22T05:33:22;5.13;;;4.35;;
8592;SDS011;4334;49.982;8.398;2023-06-22T05:35:49;9.25;;;4.80;;
8592;SDS011;4334;49.982;8.398;2023-06-22T05:38:16;5.03;;;4.30;;
8592;SDS011;4334;49.982;8.398;2023-06-22T05:40:42;4.72;;;4.20;;
8592;SDS011;4334;49.982;8.398;2023-06-22T05:43:09;4.60;;;4.10;;
8592;SDS011;4334;49.982;8.398;2023-06-22T05:45:36;5.18;;;4.30;;
8592;SDS011;4334;49.982;8.398;2023-06-22T05:48:05;5.32;;;4.28;;
8592;SDS011;4334;49.982;8.398;2023-06-22T05:50:31;4.45;;;3.70;;
8592;SDS011;4334;49.982;8.398;2023-06-22T05:52:58;5.85;;;4.22;;
8592;SDS011;4334;49.982;8.398;2023-06-22T05:55:25;5.45;;;4.20;;
8592;SDS011;4334;49.982;8.398;2023-06-22T05:57:52;5.10;;;4.13;;
8592;SDS011;4334;49.982;8.398;2023-06-22T06:00:20;5.40;;;3.70;;
8592;SDS011;4334;49.982;8.398;2023-06-22T06:02:48;4.35;;;3.95;;
8592;SDS011;4334;49.982;8.398;2023-06-22T06:05:16;5.10;;;4.35;;
8592;SDS011;4334;49.982;8.398;2023-06-22T06:07:44;10.40;;;4.53;;
8592;SDS011;4334;49.982;8.398;2023-06-22T06:10:11;4.60;;;4.18;;
8592;SDS011;4334;49.982;8.398;2023-06-22T06:12:38;4.38;;;3.78;;
8592;SDS011;4334;49.982;8.398;2023-06-22T06:15:05;7.10;;;4.30;;
8592;SDS011;4334;49.982;8.398;2023-06-22T06:17:33;4.30;;;3.80;;
8592;SDS011;4334;49.982;8.398;2023-06-22T06:20:00;4.78;;;3.80;;
8592;SDS011;4334;49.982;8.398;2023-06-22T06:22:31;4.28;;;3.88;;
8592;SDS011;4334;49.982;8.398;2023-06-22T06:24:58;7.28;;;3.80;;
8592;SDS011;4334;49.982;8.398;2023-06-22T06:27:26;7.78;;;4.93;;
8592;SDS011;4334;49.982;8.398;2023-06-22T06:29:54;4.40;;;4.00;;
8592;SDS011;4334;49.982;8.398;2023-06-22T06:32:21;8.68;;;4.90;;
8592;SDS011;4334;49.982;8.398;2023-06-22T06:34:49;5.65;;;4.13;;
8592;SDS011;4334;49.982;8.398;2023-06-22T06:37:16;5.50;;;3.88;;
8592;SDS011;4334;49.982;8.398;2023-06-22T06:39:44;5.65;;;3.88;;
8592;SDS011;4334;49.982;8.398;2023-06-22T06:42:11;4.78;;;4.30;;
8592;SDS011;4334;49.982;8.398;2023-06-22T06:44:38;4.70;;;4.20;;
8592;SDS011;4334;49.982;8.398;2023-06-22T06:47:05;4.10;;;3.70;;
8592;SDS011;4334;49.982;8.398;2023-06-22T06:49:33;4.50;;;3.92;;
8592;SDS011;4334;49.982;8.398;2023-06-22T06:52:00;4.38;;;3.97;;
8592;SDS011;4334;49.982;8.398;2023-06-22T06:54:27;13.63;;;4.63;;
8592;SDS011;4334;49.982;8.398;2023-06-22T06:56:56;5.45;;;4.22;;
8592;SDS011;4334;49.982;8.398;2023-06-22T06:59:23;4.60;;;4.07;;
8592;SDS011;4334;49.982;8.398;2023-06-22T07:01:51;4.53;;;3.67;;
8592;SDS011;4334;49.982;8.398;2023-06-22T07:04:18;5.18;;;4.00;;
8592;SDS011;4334;49.982;8.398;2023-06-22T07:06:45;10.15;;;4.28;;
8592;SDS011;4334;49.982;8.398;2023-06-22T07:09:12;5.80;;;4.00;;
8592;SDS011;4334;49.982;8.398;2023-06-22T07:11:39;4.93;;;4.22;;
8592;SDS011;4334;49.982;8.398;2023-06-22T07:14:07;5.88;;;4.38;;
8592;SDS011;4334;49.982;8.398;2023-06-22T07:16:34;9.20;;;4.15;;
8592;SDS011;4334;49.982;8.398;2023-06-22T07:19:02;5.05;;;3.97;;
8592;SDS011;4334;49.982;8.398;2023-06-22T07:21:29;7.07;;;3.63;;
8592;SDS011;4334;49.982;8.398;2023-06-22T07:23:56;5.57;;;4.20;;
8592;SDS011;4334;49.982;8.398;2023-06-22T07:26:23;4.65;;;4.20;;
8592;SDS011;4334;49.982;8.398;2023-06-22T07:28:50;4.70;;;4.00;;
8592;SDS011;4334;49.982;8.398;2023-06-22T07:31:19;5.75;;;4.07;;
8592;SDS011;4334;49.982;8.398;2023-06-22T07:33:46;4.95;;;4.00;;
8592;SDS011;4334;49.982;8.398;2023-06-22T07:36:13;4.65;;;3.38;;
8592;SDS011;4334;49.982;8.398;2023-06-22T07:38:40;8.18;;;4.20;;
8592;SDS011;4334;49.982;8.398;2023-06-22T07:41:07;4.45;;;3.72;;
8592;SDS011;4334;49.982;8.398;2023-06-22T07:43:34;4.80;;;3.70;;
8592;SDS011;4334;49.982;8.398;2023-06-22T07:46:02;9.45;;;4.22;;
8592;SDS011;4334;49.982;8.398;2023-06-22T07:48:30;5.95;;;4.20;;
8592;SDS011;4334;49.982;8.398;2023-06-22T07:50:57;4.75;;;4.30;;
8592;SDS011;4334;49.982;8.398;2023-06-22T07:53:24;5.20;;;4.10;;
8592;SDS011;4334;49.982;8.398;2023-06-22T07:55:51;5.20;;;4.70;;
8592;SDS011;4334;49.982;8.398;2023-06-22T07:58:18;4.40;;;4.00;;
8592;SDS011;4334;49.982;8.398;2023-06-22T08:00:45;6.53;;;4.32;;
8592;SDS011;4334;49.982;8.398;2023-06-22T08:03:13;8.98;;;4.43;;
8592;SDS011;4334;49.982;8.398;2023-06-22T08:05:41;6.10;;;4.72;;
8592;SDS011;4334;49.982;8.398;2023-06-22T08:08:09;6.90;;;4.07;;
8592;SDS011;4334;49.982;8.398;2023-06-22T08:10:36;6.20;;;4.30;;
8592;SDS011;4334;49.982;8.398;2023-06-22T08:13:03;5.43;;;4.63;;
8592;SDS011;4334;49.982;8.398;2023-06-22T08:15:30;3.88;;;3.42;;
8592;SDS011;4334;49.982;8.398;2023-06-22T08:17:57;4.53;;;3.85;;
8592;SDS011;4334;49.982;8.398;2023-06-22T08:20:25;5.97;;;4.28;;
8592;SDS011;4334;49.982;8.398;2023-06-22T08:22:53;7.85;;;4.10;;
8592;SDS011;4334;49.982;8.398;2023-06-22T08:25:23;6.10;;;4.60;;
8592;SDS011;4334;49.982;8.398;2023-06-22T08:27:49;4.75;;;4.10;;
8592;SDS011;4334;49.982;8.398;2023-06-22T08:30:16;9.82;;;4.53;;
8592;SDS011;4334;49.982;8.398;2023-06-22T08:32:44;14.18;;;4.68;;
8592;SDS011;4334;49.982;8.398;2023-06-22T08:35:11;5.20;;;4.22;;
8592;SDS011;4334;49.982;8.398;2023-06-22T08:37:38;5.28;;;4.68;;
8592;SDS011;4334;49.982;8.398;2023-06-22T08:40:07;4.65;;;4.10;;
8592;SDS011;4334;49.982;8.398;2023-06-22T08:42:35;5.43;;;4.65;;
8592;SDS011;4334;49.982;8.398;2023-06-22T08:45:03;10.73;;;4.03;;
8592;SDS011;4334;49.982;8.398;2023-06-22T08:47:30;5.07;;;4.43;;
8592;SDS011;4334;49.982;8.398;2023-06-22T08:49:58;5.45;;;4.18;;
8592;SDS011;4334;49.982;8.398;2023-06-22T08:52:27;4.95;;;4.25;;
8592;SDS011;4334;49.982;8.398;2023-06-22T08:54:53;4.43;;;4.03;;
8592;SDS011;4334;49.982;8.398;2023-06-22T08:57:22;14.63;;;4.60;;
8592;SDS011;4334;49.982;8.398;2023-06-22T08:59:49;5.70;;;4.30;;
8592;SDS011;4334;49.982;8.398;2023-06-22T09:02:18;4.97;;;4.32;;
8592;SDS011;4334;49.982;8.398;2023-06-22T09:04:45;5.93;;;4.28;;
8592;SDS011;4334;49.982;8.398;2023-06-22T09:07:13;5.38;;;4.53;;
8592;SDS011;4334;49.982;8.398;2023-06-22T09:09:47;5.13;;;4.63;;
8592;SDS011;4334;49.982;8.398;2023-06-22T09:12:14;6.90;;;4.72;;
8592;SDS011;4334;49.982;8.398;2023-06-22T09:14:42;7.13;;;4.43;;
8592;SDS011;4334;49.982;8.398;2023-06-22T09:17:09;5.05;;;4.45;;
8592;SDS011;4334;49.982;8.398;2023-06-22T09:19:36;4.28;;;3.88;;
8592;SDS011;4334;49.982;8.398;2023-06-22T09:22:04;4.88;;;4.28;;
8592;SDS011;4334;49.982;8.398;2023-06-22T09:24:32;5.30;;;4.20;;
8592;SDS011;4334;49.982;8.398;2023-06-22T09:26:59;6.50;;;4.43;;
8592;SDS011;4334;49.982;8.398;2023-06-22T09:29:26;5.80;;;3.90;;
8592;SDS011;4334;49.982;8.398;2023-06-22T09:31:54;8.73;;;3.90;;
8592;SDS011;4334;49.982;8.398;2023-06-22T09:34:21;7.90;;;4.70;;
8592;SDS011;4334;49.982;8.398;2023-06-22T09:36:48;4.60;;;4.20;;
8592;SDS011;4334;49.982;8.398;2023-06-22T09:39:15;5.35;;;4.43;;
8592;SDS011;4334;49.982;8.398;2023-06-22T09:41:42;4.82;;;4.13;;
8592;SDS011;4334;49.982;8.398;2023-06-22T09:44:09;4.90;;;4.22;;
8592;SDS011;4334;49.982;8.398;2023-06-22T09:46:36;7.20;;;4.53;;
8592;SDS011;4334;49.982;8.398;2023-06-22T09:49:04;7.18;;;4.28;;
8592;SDS011;4334;49.982;8.398;2023-06-22T09:51:31;4.32;;;3.92;;
8592;SDS011;4334;49.982;8.398;2023-06-22T09:53:59;5.90;;;4.45;;
8592;SDS011;4334;49.982;8.398;2023-06-22T09:56:26;4.93;;;3.95;;
8592;SDS011;4334;49.982;8.398;2023-06-22T09:58:54;7.07;;;3.67;;
8592;SDS011;4334;49.982;8.398;2023-06-22T10:01:21;7.35;;;3.75;;
8592;SDS011;4334;49.982;8.398;2023-06-22T10:03:49;4.13;;;3.67;;
8592;SDS011;4334;49.982;8.398;2023-06-22T10:06:20;4.18;;;3.78;;
8592;SDS011;4334;49.982;8.398;2023-06-22T10:08:47;4.15;;;3.55;;
8592;SDS011;4334;49.982;8.398;2023-06-22T10:11:14;6.00;;;4.00;;
8592;SDS011;4334;49.982;8.398;2023-06-22T10:13:41;5.25;;;3.80;;
8592;SDS011;4334;49.982;8.398;2023-06-22T10:16:08;4.18;;;3.78;;
8592;SDS011;4334;49.982;8.398;2023-06-22T10:18:36;3.50;;;3.20;;
8592;SDS011;4334;49.982;8.398;2023-06-22T10:21:03;8.13;;;3.50;;
8592;SDS011;4334;49.982;8.398;2023-06-22T10:23:32;4.68;;;3.45;;
8592;SDS011;4334;49.982;8.398;2023-06-22T10:25:59;4.15;;;3.75;;
8592;SDS011;4334;49.982;8.398;2023-06-22T10:28:25;3.90;;;3.40;;
8592;SDS011;4334;49.982;8.398;2023-06-22T10:30:52;4.03;;;3.47;;
8592;SDS011;4334;49.982;8.398;2023-06-22T10:33:19;4.57;;;3.35;;
8592;SDS011;4334;49.982;8.398;2023-06-22T10:35:46;4.38;;;3.53;;
8592;SDS011;4334;49.982;8.398;2023-06-22T10:38:13;3.50;;;3.15;;
8592;SDS011;4334;49.982;8.398;2023-06-22T10:40:41;3.33;;;3.03;;
8592;SDS011;4334;49.982;8.398;2023-06-22T10:43:08;3.63;;;3.33;;
8592;SDS011;4334;49.982;8.398;2023-06-22T10:45:35;3.80;;;3.42;;
8592;SDS011;4334;49.982;8.398;2023-06-22T10:48:02;5.95;;;3.70;;
8592;SDS011;4334;49.982;8.398;2023-06-22T10:50:29;3.70;;;3.30;;
8592;SDS011;4334;49.982;8.398;2023-06-22T10:52:57;7.70;;;3.35;;
8592;SDS011;4334;49.982;8.398;2023-06-22T10:55:24;3.92;;;3.10;;
8592;SDS011;4334;49.982;8.398;2023-06-22T10:57:52;3.83;;;3.35;;
8592;SDS011;4334;49.982;8.398;2023-06-22T11:00:19;5.22;;;3.28;;
8592;SDS011;4334;49.982;8.398;2023-06-22T11:02:46;7.30;;;3.30;;
8592;SDS011;4334;49.982;8.398;2023-06-22T11:05:13;6.43;;;3.42;;
8592;SDS011;4334;49.982;8.398;2023-06-22T11:07:41;4.13;;;3.70;;
8592;SDS011;4334;49.982;8.398;2023-06-22T11:10:08;4.38;;;3.72;;
8592;SDS011;4334;49.982;8.398;2023-06-22T11:12:39;4.13;;;3.40;;
8592;SDS011;4334;49.982;8.398;2023-06-22T11:15:08;6.75;;;3.50;;
8592;SDS011;4334;49.982;8.398;2023-06-22T11:17:35;4.28;;;3.38;;
8592;SDS011;4334;49.982;8.398;2023-06-22T11:20:03;9.18;;;3.70;;
8592;SDS011;4334;49.982;8.398;2023-06-22T11:22:36;4.43;;;3.47;;
8592;SDS011;4334;49.982;8.398;2023-06-22T11:25:04;3.97;;;3.35;;
8592;SDS011;4334;49.982;8.398;2023-06-22T11:27:32;4.20;;;3.80;;
8592;SDS011;4334;49.982;8.398;2023-06-22T11:29:59;8.15;;;3.58;;
8592;SDS011;4334;49.982;8.398;2023-06-22T11:32:27;5.72;;;3.65;;
8592;SDS011;4334;49.982;8.398;2023-06-22T11:34:54;8.85;;;3.80;;
8592;SDS011;4334;49.982;8.398;2023-06-22T11:37:20;4.10;;;3.30;;
8592;SDS011;4334;49.982;8.398;2023-06-22T11:39:47;4.13;;;3.60;;
8592;SDS011;4334;49.982;8.398;2023-06-22T11:42:15;6.57;;;3.50;;
8592;SDS011;4334;49.982;8.398;2023-06-22T11:44:42;5.72;;;3.67;;
8592;SDS011;4334;49.982;8.398;2023-06-22T11:47:09;5.93;;;3.40;;
8592;SDS011;4334;49.982;8.398;2023-06-22T11:49:37;4.35;;;3.42;;
8592;SDS011;4334;49.982;8.398;2023-06-22T11:52:05;7.97;;;3.97;;
8592;SDS011;4334;49.982;8.398;2023-06-22T11:54:32;4.00;;;3.60;;
8592;SDS011;4334;49.982;8.398;2023-06-22T11:56:59;3.88;;;3.47;;
8592;SDS011;4334;49.982;8.398;2023-06-22T11:59:25;8.77;;;4.60;;
8592;SDS011;4334;49.982;8.398;2023-06-22T12:01:52;4.93;;;3.85;;
8592;SDS011;4334;49.982;8.398;2023-06-22T12:04:19;5.15;;;3.80;;
8592;SDS011;4334;49.982;8.398;2023-06-22T12:06:47;4.85;;;3.78;;
8592;SDS011;4334;49.982;8.398;2023-06-22T12:09:14;4.30;;;3.53;;
8592;SDS011;4334;49.982;8.398;2023-06-22T12:11:41;4.57;;;3.80;;
8592;SDS011;4334;49.982;8.398;2023-06-22T12:14:08;4.93;;;3.78;;
8592;SDS011;4334;49.982;8.398;2023-06-22T12:16:35;4.70;;;3.97;;
8592;SDS011;4334;49.982;8.398;2023-06-22T12:19:02;4.57;;;3.65;;
8592;SDS011;4334;49.982;8.398;2023-06-22T12:21:29;4.68;;;3.92;;
8592;SDS011;4334;49.982;8.398;2023-06-22T12:23:58;4.00;;;3.22;;
8592;SDS011;4334;49.982;8.398;2023-06-22T12:26:25;4.15;;;3.60;;
8592;SDS011;4334;49.982;8.398;2023-06-22T12:28:52;4.30;;;3.90;;
8592;SDS011;4334;49.982;8.398;2023-06-22T12:31:19;4.95;;;4.13;;
8592;SDS011;4334;49.982;8.398;2023-06-22T12:33:47;4.18;;;3.78;;
8592;SDS011;4334;49.982;8.398;2023-06-22T12:36:14;4.63;;;3.83;;
8592;SDS011;4334;49.982;8.398;2023-06-22T12:38:42;5.43;;;3.95;;
8592;SDS011;4334;49.982;8.398;2023-06-22T12:41:10;4.47;;;3.70;;
8592;SDS011;4334;49.982;8.398;2023-06-22T12:43:37;4.63;;;3.75;;
8592;SDS011;4334;49.982;8.398;2023-06-22T12:46:04;5.10;;;3.50;;
8592;SDS011;4334;49.982;8.398;2023-06-22T12:48:31;4.93;;;3.70;;
8592;SDS011;4334;49.982;8.398;2023-06-22T12:50:58;4.80;;;3.58;;
8592;SDS011;4334;49.982;8.398;2023-06-22T12:53:25;5.50;;;4.07;;
8592;SDS011;4334;49.982;8.398;2023-06-22T12:55:53;4.97;;;4.03;;
8592;SDS011;4334;49.982;8.398;2023-06-22T12:58:21;5.10;;;3.90;;
8592;SDS011;4334;49.982;8.398;2023-06-22T13:00:49;5.18;;;4.00;;
8592;SDS011;4334;49.982;8.398;2023-06-22T13:03:16;11.52;;;4.28;;
8592;SDS011;4334;49.982;8.398;2023-06-22T13:05:43;4.57;;;3.85;;
8592;SDS011;4334;49.982;8.398;2023-06-22T13:08:10;4.75;;;3.95;;
8592;SDS011;4334;49.982;8.398;2023-06-22T13:10:37;8.32;;;3.88;;
8592;SDS011;4334;49.982;8.398;2023-06-22T13:13:04;4.10;;;3.70;;
8592;SDS011;4334;49.982;8.398;2023-06-22T13:15:32;6.28;;;4.00;;
8592;SDS011;4334;49.982;8.398;2023-06-22T13:17:59;4.93;;;4.00;;
8592;SDS011;4334;49.982;8.398;2023-06-22T13:20:26;5.40;;;3.90;;
8592;SDS011;4334;49.982;8.398;2023-06-22T13:22:53;5.00;;;3.72;;
8592;SDS011;4334;49.982;8.398;2023-06-22T13:25:22;11.77;;;4.07;;
8592;SDS011;4334;49.982;8.398;2023-06-22T13:27:51;6.78;;;4.35;;
8592;SDS011;4334;49.982;8.398;2023-06-22T13:30:18;5.75;;;3.70;;
8592;SDS011;4334;49.982;8.398;2023-06-22T13:32:47;8.18;;;4.22;;
8592;SDS011;4334;49.982;8.398;2023-06-22T13:35:14;5.32;;;3.58;;
8592;SDS011;4334;49.982;8.398;2023-06-22T13:37:41;4.88;;;3.78;;
8592;SDS011;4334;49.982;8.398;2023-06-22T13:40:08;4.63;;;3.70;;
8592;SDS011;4334;49.982;8.398;2023-06-22T13:42:35;4.70;;;3.75;;
8592;SDS011;4334;49.982;8.398;2023-06-22T13:45:03;3.78;;;3.47;;
8592;SDS011;4334;49.982;8.398;2023-06-22T13:47:32;11.23;;;3.50;;
8592;SDS011;4334;49.982;8.398;2023-06-22T13:50:07;3.47;;;2.80;;
8592;SDS011;4334;49.982;8.398;2023-06-22T13:52:34;3.72;;;3.03;;
8592;SDS011;4334;49.982;8.398;2023-06-22T13:55:01;3.83;;;2.58;;
8592;SDS011;4334;49.982;8.398;2023-06-22T13:57:29;5.05;;;2.83;;
8592;SDS011;4334;49.982;8.398;2023-06-22T13:59:57;2.85;;;2.47;;
8592;SDS011;4334;49.982;8.398;2023-06-22T14:02:25;2.95;;;2.63;;
8592;SDS011;4334;49.982;8.398;2023-06-22T14:04:53;9.32;;;2.85;;
8592;SDS011;4334;49.982;8.398;2023-06-22T14:07:21;6.07;;;2.95;;
8592;SDS011;4334;49.982;8.398;2023-06-22T14:09:49;10.85;;;3.25;;
8592;SDS011;4334;49.982;8.398;2023-06-22T14:12:16;6.95;;;2.88;;
8592;SDS011;4334;49.982;8.398;2023-06-22T14:14:44;8.57;;;2.88;;
8592;SDS011;4334;49.982;8.398;2023-06-22T14:17:11;4.32;;;2.50;;
8592;SDS011;4334;49.982;8.398;2023-06-22T14:19:38;4.15;;;2.80;;
8592;SDS011;4334;49.982;8.398;2023-06-22T14:22:05;5.03;;;2.40;;
8592;SDS011;4334;49.982;8.398;2023-06-22T14:24:34;7.35;;;2.70;;
8592;SDS011;4334;49.982;8.398;2023-06-22T14:27:01;4.30;;;2.80;;
8592;SDS011;4334;49.982;8.398;2023-06-22T14:29:33;12.90;;;3.00;;
8592;SDS011;4334;49.982;8.398;2023-06-22T14:32:00;5.05;;;2.90;;
8592;SDS011;4334;49.982;8.398;2023-06-22T14:34:27;2.95;;;2.50;;
8592;SDS011;4334;49.982;8.398;2023-06-22T14:36:54;4.55;;;2.70;;
8592;SDS011;4334;49.982;8.398;2023-06-22T14:39:21;6.72;;;2.92;;
8592;SDS011;4334;49.982;8.398;2023-06-22T14:41:50;4.90;;;3.15;;
8592;SDS011;4334;49.982;8.398;2023-06-22T14:44:17;5.32;;;2.85;;
8592;SDS011;4334;49.982;8.398;2023-06-22T14:46:44;3.58;;;2.60;;
8592;SDS011;4334;49.982;8.398;2023-06-22T14:49:11;9.77;;;2.88;;
8592;SDS011;4334;49.982;8.398;2023-06-22T14:51:38;6.95;;;3.15;;
8592;SDS011;4334;49.982;8.398;2023-06-22T14:54:05;6.10;;;3.40;;
8592;SDS011;4334;49.982;8.398;2023-06-22T14:56:32;5.70;;;2.70;;
8592;SDS011;4334;49.982;8.398;2023-06-22T14:59:01;6.63;;;3.15;;
8592;SDS011;4334;49.982;8.398;2023-06-22T15:01:28;7.88;;;3.35;;
8592;SDS011;4334;49.982;8.398;2023-06-22T15:03:55;8.60;;;3.33;;
8592;SDS011;4334;49.982;8.398;2023-06-22T15:06:22;8.07;;;2.97;;
8592;SDS011;4334;49.982;8.398;2023-06-22T15:08:49;8.40;;;3.10;;
8592;SDS011;4334;49.982;8.398;2023-06-22T15:11:16;10.13;;;3.55;;
8592;SDS011;4334;49.982;8.398;2023-06-22T15:13:43;14.50;;;4.00;;
8592;SDS011;4334;49.982;8.398;2023-06-22T15:16:12;7.20;;;3.10;;
8592;SDS011;4334;49.982;8.398;2023-06-22T15:18:39;8.32;;;3.75;;